Time;durP1;ratioP1;P1;durP2;ratioP2;P2;SDS_P1;SDS_P2;PMS_P1;PMS_P2;Temp;Humidity;BMP_temperature;BMP_pressure;BME280_temperature;BME280_humidity;BME280_pressure;Samples;Min_cycle;Max_cycle;Signal;HPM_P1;HPM_P2
2022/09/01 00:01:48;;;;;;;13.80;12.00;;;;;;;14.93;85.08;98525.28;7387223;19;20488;-73
2022/09/01 00:04:18;;;;;;;13.90;12.25;;;;;;;14.88;84.83;98525.81;7387999;19;20009;-72
2022/09/01 00:06:46;;;;;;;15.95;12.25;;;;;;;14.88;84.83;98525.00;7382245;19;20010;-73
2022/09/01 00:09:16;;;;;;;16.02;13.75;;;;;;;14.86;84.94;98525.16;7383436;19;20466;-72
2022/09/01 00:11:45;;;;;;;16.52;13.18;;;;;;;14.81;85.21;98524.03;7386825;19;20011;-72
2022/09/01 00:14:18;;;;;;;14.73;13.23;;;;;;;14.81;85.05;98522.19;7383735;19;20860;-72
2022/09/01 00:17:00;;;;;;;17.85;13.02;;;;;;;14.80;85.25;98523.22;7383408;19;20111;-73
2022/09/01 00:19:28;;;;;;;14.70;12.63;;;;;;;14.82;85.38;98531.00;7385423;19;20053;-73
2022/09/01 00:21:55;;;;;;;17.50;13.18;;;;;;;14.83;85.60;98528.19;7387448;19;20021;-72
2022/09/01 00:24:24;;;;;;;15.75;13.45;;;;;;;14.84;85.53;98534.34;7387044;19;20010;-72
2022/09/01 00:26:53;;;;;;;14.27;12.77;;;;;;;14.81;85.65;98537.34;7384390;19;20027;-73
2022/09/01 00:29:20;;;;;;;16.48;13.73;;;;;;;14.81;85.98;98524.03;7384906;19;20033;-73
2022/09/01 00:31:47;;;;;;;20.40;15.00;;;;;;;14.84;86.20;98529.81;7388840;19;20481;-72
2022/09/01 00:34:15;;;;;;;18.42;13.30;;;;;;;14.87;86.06;98523.31;7391747;19;20027;-72
2022/09/01 00:36:42;;;;;;;17.50;12.70;;;;;;;14.90;86.11;98523.81;7390915;19;20775;-72
2022/09/01 00:39:09;;;;;;;20.52;12.85;;;;;;;14.90;85.84;98523.81;7390116;19;20453;-72
2022/09/01 00:41:38;;;;;;;15.20;12.57;;;;;;;14.92;85.71;98524.44;7393413;19;20455;-72
2022/09/01 00:44:08;;;;;;;14.15;12.65;;;;;;;14.88;85.57;98520.50;7391858;19;20077;-72
2022/09/01 00:46:38;;;;;;;18.85;13.00;;;;;;;14.86;85.32;98521.66;7389190;19;20010;-71
2022/09/01 00:49:20;;;;;;;15.70;12.18;;;;;;;14.89;85.12;98515.97;7386964;19;20011;-72
2022/09/01 00:51:50;;;;;;;17.60;13.60;;;;;;;14.90;84.90;98514.97;7391087;19;20011;-72
2022/09/01 00:54:25;;;;;;;15.93;11.95;;;;;;;14.84;84.86;98516.50;7393377;19;20025;-72
2022/09/01 00:56:53;;;;;;;16.58;13.25;;;;;;;14.78;84.81;98514.56;7389486;19;20014;-72
2022/09/01 00:59:25;;;;;;;15.23;13.60;;;;;;;14.68;85.29;98516.66;7387724;19;20010;-72
2022/09/01 01:01:53;;;;;;;16.38;13.52;;;;;;;14.61;85.51;98507.72;7389398;19;20066;-72
2022/09/01 01:04:20;;;;;;;17.90;15.15;;;;;;;14.68;85.38;98511.31;7387853;19;20018;-72
2022/09/01 01:06:57;;;;;;;16.65;14.27;;;;;;;14.56;85.50;98510.94;7386734;19;20055;-71
2022/09/01 01:09:25;;;;;;;16.17;14.38;;;;;;;14.46;85.58;98510.31;7390145;19;20019;-72
2022/09/01 01:11:53;;;;;;;16.80;14.80;;;;;;;14.35;85.85;98508.88;7390741;19;20010;-72
2022/09/01 01:14:20;;;;;;;16.70;14.45;;;;;;;14.41;85.67;98513.50;7388035;19;20381;-72
2022/09/01 01:16:50;;;;;;;19.88;13.73;;;;;;;14.41;85.50;98512.66;7386756;19;20010;-72
2022/09/01 01:25:17;;;;;;;16.70;14.90;;;;;;;14.05;86.23;98514.03;7390733;19;20014;-73
2022/09/01 01:27:44;;;;;;;18.23;14.80;;;;;;;14.07;86.12;98513.03;7388742;19;20014;-72
2022/09/01 01:30:13;;;;;;;21.63;16.02;;;;;;;13.97;86.34;98508.75;7390168;19;20018;-71
2022/09/01 01:32:41;;;;;;;17.50;15.02;;;;;;;14.05;86.19;98506.03;7390591;19;20528;-72
2022/09/01 01:35:13;;;;;;;16.92;14.18;;;;;;;14.02;86.16;98511.72;7390641;19;20019;-73
2022/09/01 01:37:44;;;;;;;18.88;15.82;;;;;;;13.93;86.63;98507.47;7386189;19;20058;-72
2022/09/01 01:40:14;;;;;;;20.03;15.33;;;;;;;13.91;86.63;98512.13;7382266;19;20391;-71
2022/09/01 01:42:47;;;;;;;18.10;15.82;;;;;;;13.97;86.53;98514.06;7386389;19;20274;-72
2022/09/01 01:45:16;;;;;;;18.90;16.08;;;;;;;14.00;86.34;98511.06;7388842;19;20361;-73
2022/09/01 01:47:46;;;;;;;20.42;15.68;;;;;;;14.01;86.14;98514.56;7388232;19;20367;-73
2022/09/01 01:50:14;;;;;;;17.73;14.18;;;;;;;13.99;86.18;98517.38;7388086;19;20019;-73
2022/09/01 01:52:43;;;;;;;18.55;14.15;;;;;;;14.01;86.02;98518.06;7390225;19;20021;-73
2022/09/01 01:55:11;;;;;;;17.23;14.57;;;;;;;13.96;86.14;98520.41;7385266;19;20018;-71
2022/09/01 01:57:49;;;;;;;16.00;14.25;;;;;;;13.94;86.26;98522.41;7384516;19;20047;-72
2022/09/01 02:00:19;;;;;;;17.27;14.52;;;;;;;14.04;86.27;98527.50;7384607;19;20019;-70
2022/09/01 02:02:56;;;;;;;17.75;14.95;;;;;;;14.10;86.46;98516.16;7389324;19;20010;-72
2022/09/01 02:05:30;;;;;;;16.92;14.65;;;;;;;14.13;86.25;98521.13;7389027;19;20488;-72
2022/09/01 02:08:03;;;;;;;16.65;14.30;;;;;;;14.11;86.29;98530.28;7388479;19;20014;-72
2022/09/01 02:10:40;;;;;;;16.33;14.20;;;;;;;14.05;86.40;98522.00;7383068;19;20010;-72
2022/09/01 02:13:10;;;;;;;17.17;13.82;;;;;;;14.08;86.48;98522.66;7384968;19;20022;-72
2022/09/01 02:15:43;;;;;;;15.93;14.32;;;;;;;14.12;86.42;98524.81;7387778;19;20018;-73
2022/09/01 02:18:18;;;;;;;;;;;;;;;14.21;86.02;98522.91;7388494;19;20042;-72
2022/09/01 02:20:48;;;;;;;15.85;13.77;;;;;;;14.20;86.03;98516.78;7387044;19;20245;-73
2022/09/01 02:23:22;;;;;;;17.05;14.43;;;;;;;14.24;85.98;98515.44;7389159;19;20086;-74
2022/09/01 02:25:52;;;;;;;18.52;14.52;;;;;;;14.26;86.14;98517.91;7387158;19;20015;-73
2022/09/01 02:28:41;;;;;;;15.50;13.65;;;;;;;14.24;85.92;98520.75;7385980;19;20014;-73
2022/09/01 02:31:09;;;;;;;18.00;12.98;;;;;;;14.27;85.90;98516.91;7385592;19;20025;-73
2022/09/01 02:33:39;;;;;;;16.73;14.93;;;;;;;14.29;85.72;98520.22;7390005;19;20098;-73
2022/09/01 02:36:12;;;;;;;16.15;14.25;;;;;;;14.31;85.56;98523.53;7384774;19;20025;-72
2022/09/01 02:38:43;;;;;;;18.15;14.98;;;;;;;14.23;85.61;98516.41;7385083;19;20018;-73
2022/09/01 02:41:13;;;;;;;18.80;14.07;;;;;;;14.20;85.59;98521.28;7385381;19;20596;-73
2022/09/01 02:43:44;;;;;;;18.45;15.38;;;;;;;14.14;85.75;98514.81;7386611;19;20014;-72
2022/09/01 02:46:12;;;;;;;18.85;15.80;;;;;;;14.10;86.15;98518.00;7382316;19;20462;-72
2022/09/01 02:48:42;;;;;;;20.63;16.75;;;;;;;14.05;86.11;98515.84;7384678;19;20044;-73
2022/09/01 02:51:15;;;;;;;18.35;15.77;;;;;;;13.91;86.14;98516.59;7388615;19;20393;-73
2022/09/01 02:53:42;;;;;;;;;;;;;;;13.90;86.07;98514.94;7389900;19;20010;-73
2022/09/01 02:56:12;;;;;;;18.45;16.17;;;;;;;13.82;86.61;98515.78;7384622;19;19918;-71
2022/09/01 02:58:44;;;;;;;24.15;18.02;;;;;;;13.78;86.62;98511.84;7386340;19;20052;-73
2022/09/01 03:01:21;;;;;;;21.25;17.88;;;;;;;13.69;86.35;98507.53;7385233;19;20450;-73
2022/09/01 03:03:50;;;;;;;23.40;20.10;;;;;;;13.65;86.45;98514.22;7381709;19;20515;-73
2022/09/01 03:06:19;;;;;;;24.90;20.55;;;;;;;13.61;86.54;98511.91;7386753;19;20394;-73
2022/09/01 03:08:47;;;;;;;28.60;20.88;;;;;;;13.63;86.63;98511.72;7385458;19;20006;-73
2022/09/01 03:11:14;;;;;;;22.65;18.52;;;;;;;13.59;86.72;98511.25;7383939;19;20039;-73
2022/09/01 03:13:41;;;;;;;22.25;18.65;;;;;;;13.59;86.60;98516.56;7388581;19;20006;-73
2022/09/01 03:16:08;;;;;;;21.23;18.95;;;;;;;13.64;86.48;98512.53;7387712;19;20006;-73
2022/09/01 03:18:36;;;;;;;21.58;18.08;;;;;;;13.67;86.31;98510.38;7383458;19;20039;-72
2022/09/01 03:21:07;;;;;;;19.40;16.98;;;;;;;13.62;86.30;98504.75;7378138;19;20022;-72
2022/09/01 03:23:35;;;;;;;22.35;16.85;;;;;;;13.57;86.61;98513.25;7385380;19;20082;-71
2022/09/01 03:26:02;;;;;;;18.70;15.15;;;;;;;13.68;85.95;98511.22;7372506;19;20383;-72
2022/09/01 03:28:29;;;;;;;24.08;16.77;;;;;;;13.67;85.95;98510.38;7377405;19;20019;-73
2022/09/01 03:30:57;;;;;;;18.67;16.27;;;;;;;13.67;86.10;98505.06;7377161;19;20097;-73
2022/09/01 03:33:26;;;;;;;19.92;16.92;;;;;;;13.64;86.11;98509.88;7384829;19;20014;-72
2022/09/01 03:35:55;;;;;;;20.67;17.17;;;;;;;13.64;86.06;98510.75;7381280;19;20113;-71
2022/09/01 03:38:23;;;;;;;20.13;15.70;;;;;;;13.70;85.92;98514.53;7382551;19;20809;-73
2022/09/01 03:41:00;;;;;;;21.17;16.33;;;;;;;13.58;86.27;98514.88;7382427;19;20022;-71
2022/09/01 03:43:30;;;;;;;23.45;16.90;;;;;;;13.51;86.50;98510.47;7385956;19;20006;-72
2022/09/01 03:46:02;;;;;;;20.77;16.63;;;;;;;13.51;86.47;98502.47;7386544;19;20559;-72
2022/09/01 03:48:30;;;;;;;21.20;17.75;;;;;;;13.47;86.66;98509.13;7384531;19;20015;-73
2022/09/01 03:51:01;;;;;;;21.80;17.88;;;;;;;13.38;86.94;98510.97;7378675;19;20018;-73
2022/09/01 03:53:33;;;;;;;29.17;18.55;;;;;;;13.28;87.13;98505.03;7384552;19;20122;-72
2022/09/01 03:56:02;;;;;;;24.35;20.10;;;;;;;13.23;87.10;98507.34;7384913;19;20029;-72
2022/09/01 03:58:31;;;;;;;28.50;20.67;;;;;;;13.18;87.13;98513.16;7382114;19;20093;-73
2022/09/01 04:01:00;;;;;;;27.60;20.23;;;;;;;13.18;87.06;98508.66;7382766;19;20017;-72
2022/09/01 04:03:30;;;;;;;26.77;21.15;;;;;;;13.16;87.12;98513.34;7384424;19;20011;-73
2022/09/01 04:06:00;;;;;;;27.35;21.25;;;;;;;13.18;87.12;98515.81;7390454;19;20018;-73
2022/09/01 04:08:30;;;;;;;22.05;18.92;;;;;;;13.22;86.90;98516.28;7388011;19;20015;-73
2022/09/01 04:11:01;;;;;;;21.02;16.80;;;;;;;13.25;86.76;98518.63;7388013;19;20370;-72
2022/09/01 04:13:34;;;;;;;21.52;17.88;;;;;;;13.30;86.48;98518.97;7391856;19;20022;-72
2022/09/01 04:16:02;;;;;;;22.38;18.27;;;;;;;13.33;86.42;98526.59;7392887;19;20078;-73
2022/09/01 04:18:29;;;;;;;21.95;17.25;;;;;;;13.37;86.41;98523.41;7391179;19;20047;-72
2022/09/01 04:20:58;;;;;;;21.67;18.17;;;;;;;13.38;86.56;98516.31;7388004;19;20018;-73
2022/09/01 04:23:32;;;;;;;21.10;18.35;;;;;;;13.38;86.66;98522.44;7394367;19;20018;-72
2022/09/01 04:26:13;;;;;;;24.20;18.73;;;;;;;13.37;86.55;98517.28;7387782;19;20105;-72
2022/09/01 04:28:44;;;;;;;24.35;18.75;;;;;;;13.30;86.78;98525.13;7387864;19;20018;-72
2022/09/01 04:31:17;;;;;;;23.42;20.13;;;;;;;13.34;86.64;98517.63;7393488;19;20078;-72
2022/09/01 04:33:48;;;;;;;20.80;17.52;;;;;;;13.38;86.46;98518.97;7391460;19;20034;-72
2022/09/01 04:36:27;;;;;;;25.50;17.70;;;;;;;13.33;86.69;98519.47;7388046;19;20022;-71
2022/09/01 04:38:56;;;;;;;25.30;18.75;;;;;;;13.35;86.65;98517.47;7388281;19;20026;-71
2022/09/01 04:41:30;;;;;;;22.67;17.98;;;;;;;13.34;86.83;98525.59;7386165;19;20080;-73
2022/09/01 04:44:03;;;;;;;23.27;19.25;;;;;;;13.33;86.71;98523.94;7388206;19;20018;-71
2022/09/01 04:46:36;;;;;;;19.05;17.02;;;;;;;13.44;86.71;98520.09;7389153;19;20015;-73
2022/09/01 04:49:08;;;;;;;25.63;20.10;;;;;;;13.42;86.92;98528.22;7389800;19;20010;-71
2022/09/01 04:51:41;;;;;;;23.70;18.30;;;;;;;13.48;86.83;98516.94;7389455;19;20022;-73
2022/09/01 04:54:11;;;;;;;26.67;19.35;;;;;;;13.45;86.81;98516.44;7390650;19;20018;-73
2022/09/01 04:56:39;;;;;;;21.48;18.58;;;;;;;13.49;86.80;98518.59;7389332;19;20078;-73
2022/09/01 04:59:11;;;;;;;22.30;19.35;;;;;;;13.50;86.82;98520.22;7384198;19;20018;-73
2022/09/01 05:01:42;;;;;;;26.52;19.77;;;;;;;13.58;86.56;98512.22;7384701;19;20027;-73
2022/09/01 05:04:13;;;;;;;22.15;19.38;;;;;;;13.66;86.65;98515.88;7389979;19;20696;-73
2022/09/01 05:06:42;;;;;;;25.27;19.27;;;;;;;13.69;86.69;98513.72;7390040;19;20014;-72
2022/09/01 05:09:10;;;;;;;22.27;19.70;;;;;;;13.75;86.67;98523.66;7386646;19;21490;-73
2022/09/01 05:11:51;;;;;;;25.63;20.63;;;;;;;13.81;86.65;98522.94;7390472;19;20099;-72
2022/09/01 05:14:24;;;;;;;23.13;20.17;;;;;;;13.88;86.65;98516.97;7389696;19;20025;-73
2022/09/01 05:16:57;;;;;;;25.05;19.55;;;;;;;13.92;86.35;98521.75;7378502;19;20074;-73
2022/09/01 05:19:29;;;;;;;26.10;22.10;;;;;;;13.97;86.43;98521.22;7386778;19;20018;-73
2022/09/01 05:21:58;;;;;;;25.88;20.77;;;;;;;14.02;86.38;98525.00;7390097;19;20022;-73
2022/09/01 05:24:29;;;;;;;30.80;22.38;;;;;;;14.03;86.23;98525.84;7389571;19;20025;-71
2022/09/01 05:26:59;;;;;;;23.98;20.77;;;;;;;14.04;86.42;98528.34;7387901;19;20018;-73
2022/09/01 05:29:27;;;;;;;28.10;22.80;;;;;;;14.01;86.38;98531.34;7388090;19;20078;-72
2022/09/01 05:31:55;;;;;;;28.10;20.70;;;;;;;14.06;86.12;98525.53;7386424;19;20402;-73
2022/09/01 05:34:26;;;;;;;28.23;22.10;;;;;;;14.04;85.85;98533.66;7387195;19;20030;-73
2022/09/01 05:36:58;;;;;;;26.40;22.35;;;;;;;14.01;85.95;98528.69;7386084;19;20022;-73
2022/09/01 05:39:26;;;;;;;28.95;21.52;;;;;;;14.07;85.87;98524.50;7381758;19;20017;-73
2022/09/01 05:41:53;;;;;;;27.55;22.30;;;;;;;14.13;85.82;98528.28;7385679;19;20019;-74
2022/09/01 05:44:21;;;;;;;30.73;22.95;;;;;;;14.25;85.64;98532.22;7390111;19;20002;-73
2022/09/01 05:46:51;;;;;;;30.00;22.42;;;;;;;14.40;85.38;98533.13;7386635;19;20007;-73
2022/09/01 05:49:18;;;;;;;29.42;23.90;;;;;;;14.54;84.85;98522.75;7381348;19;20019;-72
2022/09/01 05:51:50;;;;;;;29.50;23.83;;;;;;;14.64;84.47;98526.84;7386719;19;20403;-73
2022/09/01 05:54:24;;;;;;;26.88;22.02;;;;;;;14.76;84.14;98527.25;7386199;19;20026;-72
2022/09/01 05:56:52;;;;;;;32.40;24.77;;;;;;;14.81;83.62;98529.38;7379304;19;20093;-73
2022/09/01 05:59:22;;;;;;;32.10;23.75;;;;;;;14.69;83.30;98523.63;7383029;19;20014;-73
2022/09/01 06:01:58;;;;;;;29.27;24.13;;;;;;;14.82;83.05;98526.50;7379224;19;20484;-73
2022/09/01 06:04:25;;;;;;;29.20;23.30;;;;;;;14.81;83.16;98521.38;7383788;19;20014;-72
2022/09/01 06:06:56;;;;;;;30.15;24.35;;;;;;;14.96;83.00;98524.91;7381114;19;20014;-74
2022/09/01 06:09:39;;;;;;;31.55;24.83;;;;;;;15.06;82.85;98517.50;7384626;19;20369;-73
2022/09/01 06:12:10;;;;;;;32.22;24.27;;;;;;;15.17;82.48;98529.56;7387970;19;20032;-73
2022/09/01 06:14:37;;;;;;;32.43;24.77;;;;;;;15.31;82.04;98526.06;7390177;19;20025;-73
2022/09/01 06:17:10;;;;;;;30.02;25.13;;;;;;;15.52;81.81;98519.19;7383865;19;20856;-74
2022/09/01 06:19:38;;;;;;;30.52;23.77;;;;;;;15.70;81.29;98518.88;7390054;19;20102;-73
2022/09/01 06:22:06;;;;;;;28.83;22.52;;;;;;;15.74;79.75;98520.94;7382041;19;20025;-73
2022/09/01 06:24:32;;;;;;;28.73;22.65;;;;;;;15.75;79.84;98509.28;7383452;19;20010;-73
2022/09/01 06:27:00;;;;;;;26.88;21.70;;;;;;;15.56;80.37;98515.13;7383302;19;20006;-73
2022/09/01 06:29:27;;;;;;;29.48;23.40;;;;;;;15.42;80.32;98514.13;7378486;19;20015;-73
2022/09/01 06:31:55;;;;;;;29.45;23.17;;;;;;;15.45;80.63;98520.94;7385382;19;20033;-73
2022/09/01 06:34:22;;;;;;;26.10;21.45;;;;;;;15.58;80.42;98516.59;7384759;19;20031;-73
2022/09/01 06:36:51;;;;;;;29.23;22.45;;;;;;;15.70;80.13;98513.53;7383199;19;20019;-74
2022/09/01 06:39:19;;;;;;;29.10;23.02;;;;;;;15.61;79.69;98518.06;7378526;19;20017;-73
2022/09/01 06:41:51;;;;;;;26.38;20.38;;;;;;;15.73;79.76;98524.66;7373882;19;20102;-72
2022/09/01 06:44:23;;;;;;;25.83;21.05;;;;;;;15.90;79.95;98508.44;7383485;19;20018;-72
2022/09/01 06:46:58;;;;;;;25.73;21.95;;;;;;;15.99;78.93;98518.81;7385148;19;20357;-71
2022/09/01 06:49:31;;;;;;;27.63;20.30;;;;;;;16.17;78.94;98521.09;7384233;19;20018;-72
2022/09/01 06:52:01;;;;;;;28.50;22.95;;;;;;;16.34;78.38;98515.50;7387546;19;20040;-72
2022/09/01 06:54:33;;;;;;;29.85;22.33;;;;;;;16.28;78.13;98522.44;7387581;19;20367;-71
2022/09/01 06:57:02;;;;;;;26.38;20.75;;;;;;;16.31;78.49;98514.03;7381303;19;20030;-72
2022/09/01 06:59:50;;;;;;;24.92;20.17;;;;;;;16.35;78.62;98520.69;7386412;19;20014;-72
2022/09/01 07:02:19;;;;;;;25.35;20.52;;;;;;;16.44;78.78;98518.72;7383353;19;20026;-73
2022/09/01 07:05:20;;;;;;;26.88;20.67;;;;;;;16.63;77.88;98523.41;7387185;19;20006;-72
2022/09/01 07:08:09;;;;;;;26.25;21.52;;;;;;;16.86;77.42;98533.09;7385272;19;20015;-73
2022/09/01 07:10:56;;;;;;;23.23;19.98;;;;;;;17.16;75.90;98532.94;7383736;19;20021;-72
2022/09/01 07:13:44;;;;;;;25.23;18.75;;;;;;;17.69;75.33;98522.56;7382449;19;20014;-72
2022/09/01 07:16:36;;;;;;;21.20;17.52;;;;;;;18.07;73.19;98527.53;7384048;19;20017;-72
2022/09/01 07:19:18;;;;;;;18.77;16.42;;;;;;;18.27;72.14;98525.72;7385416;19;20419;-73
2022/09/01 07:21:55;;;;;;;19.65;15.48;;;;;;;18.27;71.13;98522.22;7381572;19;20763;-72
2022/09/01 07:24:45;;;;;;;18.35;14.80;;;;;;;18.04;71.44;98526.09;7385855;19;20473;-72
2022/09/01 07:27:39;;;;;;;17.73;14.35;;;;;;;18.28;71.93;98530.06;7383919;19;20014;-74
2022/09/01 07:30:08;;;;;;;18.65;14.30;;;;;;;18.47;71.42;98527.66;7375622;19;20052;-73
2022/09/01 07:32:38;;;;;;;17.20;14.60;;;;;;;18.76;70.40;98531.84;7375575;19;20178;-73
2022/09/01 07:35:15;;;;;;;19.38;14.93;;;;;;;18.60;70.14;98533.84;7377903;19;20039;-72
2022/09/01 07:37:43;;;;;;;21.50;16.10;;;;;;;18.61;70.34;98535.50;7377294;19;20014;-73
2022/09/01 07:40:30;;;;;;;19.02;16.25;;;;;;;18.45;70.27;98533.19;7381292;19;20003;-72
2022/09/01 07:43:51;;;;;;;20.60;15.85;;;;;;;18.52;69.53;98542.09;7382443;19;20027;-72
2022/09/01 07:46:36;;;;;;;19.77;15.75;;;;;;;18.43;69.31;98536.09;7382089;19;20022;-72
2022/09/01 07:49:08;;;;;;;21.58;17.33;;;;;;;18.59;68.99;98550.16;7379665;19;20022;-72
2022/09/01 07:51:56;;;;;;;21.90;17.25;;;;;;;18.93;67.48;98541.16;7385580;19;20018;-72
2022/09/01 07:54:26;;;;;;;21.75;15.73;;;;;;;19.27;67.63;98548.19;7384420;19;20015;-72
2022/09/01 07:56:54;;;;;;;18.05;13.30;;;;;;;19.45;68.47;98547.50;7381034;19;20077;-72
2022/09/01 07:59:22;;;;;;;14.90;12.52;;;;;;;19.62;68.47;98547.91;7380853;19;20474;-73
2022/09/01 08:01:56;;;;;;;16.90;12.52;;;;;;;19.85;65.12;98549.31;7380069;19;20015;-73
2022/09/01 08:04:23;;;;;;;12.95;11.50;;;;;;;19.81;66.21;98553.47;7376951;19;20019;-72
2022/09/01 08:06:50;;;;;;;16.30;11.38;;;;;;;19.98;66.66;98549.28;7378947;19;20014;-73
2022/09/01 08:09:17;;;;;;;16.15;12.07;;;;;;;20.20;63.32;98555.19;7376743;19;20011;-71
2022/09/01 08:12:05;;;;;;;11.25;9.75;;;;;;;20.23;64.77;98546.72;7381301;19;20023;-72
2022/09/01 08:14:36;;;;;;;11.65;10.52;;;;;;;20.22;63.90;98552.28;7381693;19;20014;-71
2022/09/01 08:17:04;;;;;;;13.05;10.02;;;;;;;20.22;63.93;98554.97;7376184;19;20527;-72
2022/09/01 08:19:52;;;;;;;11.32;9.75;;;;;;;20.38;63.63;98562.56;7376440;19;20670;-72
2022/09/01 08:22:36;;;;;;;13.13;10.48;;;;;;;20.18;62.33;98563.47;7374341;19;20023;-72
2022/09/01 08:25:15;;;;;;;11.90;10.25;;;;;;;20.23;62.83;98564.69;7382843;19;20060;-71
2022/09/01 08:27:42;;;;;;;12.18;10.07;;;;;;;20.09;62.54;98559.38;7378672;19;20107;-72
2022/09/01 08:30:13;;;;;;;10.57;9.07;;;;;;;20.24;63.17;98564.47;7383363;19;20022;-71
2022/09/01 08:32:42;;;;;;;9.73;8.70;;;;;;;20.44;62.66;98555.50;7384848;19;20025;-72
2022/09/01 08:35:15;;;;;;;9.85;8.85;;;;;;;20.58;62.83;98567.84;7380900;19;20011;-71
2022/09/01 08:37:43;;;;;;;9.82;8.82;;;;;;;20.47;63.31;98557.75;7376777;19;20083;-72
2022/09/01 08:40:14;;;;;;;9.65;8.73;;;;;;;20.32;64.93;98561.53;7384949;19;20362;-72
2022/09/01 08:42:47;;;;;;;10.38;8.65;;;;;;;20.31;64.56;98562.59;7378827;19;20007;-72
2022/09/01 08:45:30;;;;;;;10.07;9.07;;;;;;;20.51;63.87;98562.50;7381548;19;20154;-70
2022/09/01 08:48:04;;;;;;;12.13;8.75;;;;;;;20.66;62.32;98561.41;7380248;19;20006;-72
2022/09/01 08:50:58;;;;;;;9.43;8.38;;;;;;;20.74;62.93;98566.50;7385708;19;20021;-72
2022/09/01 08:53:46;;;;;;;9.70;7.75;;;;;;;20.73;61.16;98564.88;7385207;19;20078;-72
2022/09/01 08:56:14;;;;;;;8.75;7.80;;;;;;;20.66;59.84;98572.97;7388934;19;20090;-72
2022/09/01 08:58:41;;;;;;;8.02;7.22;;;;;;;20.85;60.48;98568.50;7389525;19;20039;-72
2022/09/01 09:01:39;;;;;;;7.78;6.97;;;;;;;20.85;59.31;98568.50;7388594;19;20017;-73
2022/09/01 09:04:29;;;;;;;6.95;6.25;;;;;;;20.56;60.01;98569.94;7391644;19;20051;-73
2022/09/01 09:07:07;;;;;;;7.68;6.68;;;;;;;20.52;61.01;98568.69;7390621;19;20018;-71
2022/09/01 09:09:59;;;;;;;6.80;6.10;;;;;;;20.63;59.09;98575.28;7385073;19;20057;-73
2022/09/01 09:12:35;;;;;;;5.88;5.22;;;;;;;20.46;61.10;98569.53;7387672;19;20015;-72
2022/09/01 09:15:38;;;;;;;5.35;4.82;;;;;;;20.10;61.04;98577.13;7388376;19;20603;-73
2022/09/01 09:18:13;;;;;;;7.47;5.40;;;;;;;19.70;61.14;98577.25;7386873;19;20359;-70
2022/09/01 09:21:10;;;;;;;7.18;5.82;;;;;;;19.76;61.65;98585.50;7390195;19;20013;-73
2022/09/01 09:23:44;;;;;;;6.78;5.75;;;;;;;19.65;60.32;98574.34;7389251;19;20011;-71
2022/09/01 09:26:12;;;;;;;5.95;5.32;;;;;;;19.84;61.81;98571.84;7385112;19;20011;-72
2022/09/01 09:28:42;;;;;;;5.70;5.10;;;;;;;20.11;63.21;98565.34;7387474;19;20532;-72
2022/09/01 09:31:34;;;;;;;5.63;5.13;;;;;;;20.37;62.02;98568.97;7389133;19;20011;-73
2022/09/01 09:34:02;;;;;;;5.65;5.05;;;;;;;20.82;60.27;98566.25;7389733;19;20015;-72
2022/09/01 09:36:32;;;;;;;5.50;5.00;;;;;;;20.94;60.83;98569.91;7390948;19;20010;-72
2022/09/01 09:39:08;;;;;;;5.90;4.50;;;;;;;21.16;58.55;98573.03;7382473;19;20496;-72
2022/09/01 09:41:39;;;;;;;4.68;4.20;;;;;;;21.13;59.06;98570.78;7382237;19;20010;-70
2022/09/01 09:44:10;;;;;;;4.72;4.28;;;;;;;21.53;56.87;98565.09;7378539;19;20073;-72
2022/09/01 09:46:40;;;;;;;5.53;5.03;;;;;;;21.84;56.24;98572.25;7387682;19;20405;-71
2022/09/01 09:49:08;;;;;;;5.07;4.50;;;;;;;22.42;55.09;98559.38;7385457;19;20030;-73
2022/09/01 09:51:40;;;;;;;4.68;4.13;;;;;;;22.60;54.54;98558.50;7389703;19;20020;-72
2022/09/01 09:54:16;;;;;;;5.25;4.57;;;;;;;22.48;54.80;98558.44;7387387;19;20015;-71
2022/09/01 09:56:45;;;;;;;4.78;4.38;;;;;;;22.43;54.83;98555.59;7389465;19;20018;-74
2022/09/01 09:59:30;;;;;;;5.60;4.60;;;;;;;21.97;55.93;98559.69;7386745;19;20014;-73
2022/09/01 10:02:26;;;;;;;4.80;4.30;;;;;;;22.02;56.17;98552.56;7383094;19;20010;-71
2022/09/01 10:04:54;;;;;;;6.60;4.18;;;;;;;22.41;54.52;98555.00;7388230;19;20015;-72
2022/09/01 10:07:26;;;;;;;4.70;4.30;;;;;;;22.46;54.53;98545.22;7388549;19;20098;-73
2022/09/01 10:09:54;;;;;;;4.22;3.78;;;;;;;22.14;55.42;98542.69;7390338;19;20473;-74
2022/09/01 10:12:23;;;;;;;7.97;4.50;;;;;;;22.29;55.20;98546.88;7386192;19;20019;-73
2022/09/01 10:14:57;;;;;;;6.43;3.75;;;;;;;23.03;54.40;98546.69;7389431;19;20094;-73
2022/09/01 10:17:29;;;;;;;7.80;4.85;;;;;;;22.74;53.57;98543.75;7385115;19;20039;-75
2022/09/01 10:20:04;;;;;;;4.43;4.00;;;;;;;22.92;52.22;98546.38;7388399;19;20403;-73
2022/09/01 10:22:34;;;;;;;3.88;3.47;;;;;;;23.02;51.98;98550.44;7388240;19;20014;-72
2022/09/01 10:25:02;;;;;;;5.18;3.92;;;;;;;23.03;51.60;98539.41;7388483;19;20010;-73
2022/09/01 10:27:35;;;;;;;4.65;4.25;;;;;;;22.52;50.74;98538.88;7386530;19;20006;-74
2022/09/01 10:30:12;;;;;;;4.35;3.95;;;;;;;22.24;53.88;98554.81;7387439;19;20042;-71
2022/09/01 10:32:48;;;;;;;4.72;3.88;;;;;;;21.69;55.52;98550.22;7385372;19;20061;-73
2022/09/01 10:35:32;;;;;;;5.40;4.15;;;;;;;21.70;56.34;98549.19;7386074;19;20014;-71
2022/09/01 10:38:05;;;;;;;9.18;4.18;;;;;;;22.44;52.44;98544.59;7387952;19;20468;-73
2022/09/01 10:40:44;;;;;;;5.25;4.22;;;;;;;22.74;51.27;98541.88;7386057;19;20018;-73
2022/09/01 10:43:50;;;;;;;4.93;3.97;;;;;;;23.21;52.86;98544.69;7384789;19;20043;-73
2022/09/01 10:46:20;;;;;;;3.80;3.50;;;;;;;23.49;49.45;98535.09;7386144;19;20011;-74
2022/09/01 10:48:54;;;;;;;4.18;3.88;;;;;;;23.61;48.78;98535.91;7385798;19;20019;-73
2022/09/01 10:51:27;;;;;;;5.47;3.85;;;;;;;23.53;50.95;98532.75;7383156;19;20014;-73
2022/09/01 10:54:04;;;;;;;4.20;3.70;;;;;;;23.52;49.24;98533.81;7388670;19;20018;-75
2022/09/01 10:57:00;;;;;;;4.15;3.70;;;;;;;23.11;51.64;98535.53;7386716;19;20073;-73
2022/09/01 10:59:34;;;;;;;4.60;3.65;;;;;;;22.69;52.32;98533.66;7384915;19;20138;-73
2022/09/01 11:02:21;;;;;;;3.88;3.58;;;;;;;22.73;53.28;98526.75;7386083;19;20022;-73
2022/09/01 11:04:57;;;;;;;3.90;3.58;;;;;;;22.75;53.02;98532.75;7387535;19;20034;-73
2022/09/01 11:07:33;;;;;;;4.57;4.18;;;;;;;22.24;51.78;98528.69;7382669;19;20469;-73
2022/09/01 11:10:36;;;;;;;3.63;3.33;;;;;;;22.04;54.95;98528.09;7384340;19;20018;-73
2022/09/01 11:13:18;;;;;;;4.32;3.92;;;;;;;21.90;55.24;98519.34;7385492;19;20053;-74
2022/09/01 11:15:45;;;;;;;5.88;4.03;;;;;;;22.17;55.00;98522.56;7384715;19;20010;-73
2022/09/01 11:18:28;;;;;;;5.65;3.72;;;;;;;22.00;55.73;98519.63;7382018;19;20038;-73
2022/09/01 11:20:55;;;;;;;;;;;;;;;21.98;54.09;98523.59;7381742;19;20011;-74
2022/09/01 11:23:29;;;;;;;4.82;4.43;;;;;;;21.80;54.07;98524.44;7374103;19;19919;-74
2022/09/01 11:25:58;;;;;;;5.93;4.75;;;;;;;21.64;54.69;98512.38;7381923;19;20038;-74
2022/09/01 11:28:44;;;;;;;4.35;3.95;;;;;;;21.43;55.30;98517.16;7384689;19;20493;-72
2022/09/01 11:31:22;;;;;;;4.68;4.28;;;;;;;21.34;55.06;98520.31;7386919;19;20078;-74
2022/09/01 11:33:59;;;;;;;4.32;3.92;;;;;;;21.63;56.54;98508.06;7377116;19;20014;-72
2022/09/01 11:36:28;;;;;;;5.45;4.78;;;;;;;21.68;55.93;98508.22;7385567;19;20042;-74
2022/09/01 11:39:21;;;;;;;5.28;4.00;;;;;;;21.92;55.34;98515.38;7383122;19;20126;-73
2022/09/01 11:42:02;;;;;;;4.30;3.90;;;;;;;22.21;52.62;98507.59;7384932;19;20018;-73
2022/09/01 11:45:02;;;;;;;4.18;3.88;;;;;;;22.52;51.77;98500.31;7400933;19;20481;-73
2022/09/01 11:47:39;;;;;;;4.45;4.05;;;;;;;22.53;49.98;98496.56;7385434;19;20011;-72
2022/09/01 11:50:18;;;;;;;3.83;3.53;;;;;;;22.61;53.84;98496.25;7383866;19;20014;-72
2022/09/01 11:52:56;;;;;;;4.00;3.67;;;;;;;22.54;50.74;98492.84;7380440;19;20011;-72
2022/09/01 11:55:43;;;;;;;5.20;3.97;;;;;;;22.55;51.40;98494.47;7382258;19;20799;-73
2022/09/01 11:58:13;;;;;;;5.20;3.92;;;;;;;22.55;51.18;98483.69;7377707;19;20006;-73